sensor_id;sensor_type;location;lat;lon;timestamp;temperature;humidity
8313;DHT22;4194;43.408;24.626;2023-01-08T00:01:25;2.00;99.90
8313;DHT22;4194;43.408;24.626;2023-01-08T00:03:51;2.00;99.90
8313;DHT22;4194;43.408;24.626;2023-01-08T00:06:18;2.80;99.90
8313;DHT22;4194;43.408;24.626;2023-01-08T00:08:46;1.80;99.90
8313;DHT22;4194;43.408;24.626;2023-01-08T00:11:12;1.70;99.90
8313;DHT22;4194;43.408;24.626;2023-01-08T00:16:06;2.00;99.90
8313;DHT22;4194;43.408;24.626;2023-01-08T00:18:32;1.00;99.90
8313;DHT22;4194;43.408;24.626;2023-01-08T00:20:58;0.60;99.90
8313;DHT22;4194;43.408;24.626;2023-01-08T00:23:24;0.40;99.90
8313;DHT22;4194;43.408;24.626;2023-01-08T00:25:49;2.10;99.90
8313;DHT22;4194;43.408;24.626;2023-01-08T00:28:15;0.20;99.90
8313;DHT22;4194;43.408;24.626;2023-01-08T00:30:41;0.70;99.90
8313;DHT22;4194;43.408;24.626;2023-01-08T00:33:07;1.50;99.90
8313;DHT22;4194;43.408;24.626;2023-01-08T00:35:33;1.80;99.90
8313;DHT22;4194;43.408;24.626;2023-01-08T00:40:25;1.50;99.90
8313;DHT22;4194;43.408;24.626;2023-01-08T00:42:50;1.50;99.90
8313;DHT22;4194;43.408;24.626;2023-01-08T00:45:16;1.10;99.90
8313;DHT22;4194;43.408;24.626;2023-01-08T00:47:42;0.60;99.90
8313;DHT22;4194;43.408;24.626;2023-01-08T00:50:08;1.90;99.90
8313;DHT22;4194;43.408;24.626;2023-01-08T00:52:33;2.80;99.90
8313;DHT22;4194;43.408;24.626;2023-01-08T00:54:59;1.20;99.90
8313;DHT22;4194;43.408;24.626;2023-01-08T00:59:51;0.70;99.90
8313;DHT22;4194;43.408;24.626;2023-01-08T01:02:16;2.20;99.90
8313;DHT22;4194;43.408;24.626;2023-01-08T01:04:42;1.40;99.90
8313;DHT22;4194;43.408;24.626;2023-01-08T01:07:08;1.90;99.90
8313;DHT22;4194;43.408;24.626;2023-01-08T01:09:33;2.00;99.90
8313;DHT22;4194;43.408;24.626;2023-01-08T01:11:59;1.50;99.90
8313;DHT22;4194;43.408;24.626;2023-01-08T01:14:25;1.10;99.90
8313;DHT22;4194;43.408;24.626;2023-01-08T01:16:50;1.30;99.90
8313;DHT22;4194;43.408;24.626;2023-01-08T01:19:16;1.70;99.90
8313;DHT22;4194;43.408;24.626;2023-01-08T01:21:43;0.80;99.90
8313;DHT22;4194;43.408;24.626;2023-01-08T01:24:10;2.50;99.90
8313;DHT22;4194;43.408;24.626;2023-01-08T01:26:37;2.40;99.90
8313;DHT22;4194;43.408;24.626;2023-01-08T01:31:30;1.60;99.90
8313;DHT22;4194;43.408;24.626;2023-01-08T01:33:56;1.50;99.90
8313;DHT22;4194;43.408;24.626;2023-01-08T01:36:22;1.70;99.90
8313;DHT22;4194;43.408;24.626;2023-01-08T01:38:50;1.10;99.90
8313;DHT22;4194;43.408;24.626;2023-01-08T01:43:58;2.00;99.90
8313;DHT22;4194;43.408;24.626;2023-01-08T01:46:37;1.70;99.90
8313;DHT22;4194;43.408;24.626;2023-01-08T01:49:11;1.30;99.90
8313;DHT22;4194;43.408;24.626;2023-01-08T01:51:41;1.50;99.90
8313;DHT22;4194;43.408;24.626;2023-01-08T01:54:10;1.70;99.90
8313;DHT22;4194;43.408;24.626;2023-01-08T01:56:37;0.60;99.90
8313;DHT22;4194;43.408;24.626;2023-01-08T01:59:03;1.30;99.90
8313;DHT22;4194;43.408;24.626;2023-01-08T02:01:30;0.40;99.90
8313;DHT22;4194;43.408;24.626;2023-01-08T02:03:56;1.60;99.90
8313;DHT22;4194;43.408;24.626;2023-01-08T02:06:35;0.70;99.90
8313;DHT22;4194;43.408;24.626;2023-01-08T02:09:22;0.70;99.90
8313;DHT22;4194;43.408;24.626;2023-01-08T02:12:09;0.80;99.90
8313;DHT22;4194;43.408;24.626;2023-01-08T02:14:47;0.90;99.90
8313;DHT22;4194;43.408;24.626;2023-01-08T02:17:25;0.80;99.90
8313;DHT22;4194;43.408;24.626;2023-01-08T02:25:13;0.50;99.90
8313;DHT22;4194;43.408;24.626;2023-01-08T02:27:44;1.90;99.90
8313;DHT22;4194;43.408;24.626;2023-01-08T02:30:12;1.60;99.90
8313;DHT22;4194;43.408;24.626;2023-01-08T02:32:39;0.50;99.90
8313;DHT22;4194;43.408;24.626;2023-01-08T02:37:31;0.20;99.90
8313;DHT22;4194;43.408;24.626;2023-01-08T02:42:48;0.40;99.90
8313;DHT22;4194;43.408;24.626;2023-01-08T02:48:13;1.80;99.90
8313;DHT22;4194;43.408;24.626;2023-01-08T02:50:53;0.20;99.90
8313;DHT22;4194;43.408;24.626;2023-01-08T02:55:57;0.20;99.90
8313;DHT22;4194;43.408;24.626;2023-01-08T02:58:25;0.70;99.90
8313;DHT22;4194;43.408;24.626;2023-01-08T03:00:52;0.30;99.90
8313;DHT22;4194;43.408;24.626;2023-01-08T03:08:15;0.30;99.90
8313;DHT22;4194;43.408;24.626;2023-01-08T03:13:16;0.60;99.90
8313;DHT22;4194;43.408;24.626;2023-01-08T03:15:50;0.80;99.90
8313;DHT22;4194;43.408;24.626;2023-01-08T03:18:25;0.80;99.90
8313;DHT22;4194;43.408;24.626;2023-01-08T03:20:54;0.30;99.90
8313;DHT22;4194;43.408;24.626;2023-01-08T03:23:22;1.20;99.90
8313;DHT22;4194;43.408;24.626;2023-01-08T03:25:47;-0.20;99.90
8313;DHT22;4194;43.408;24.626;2023-01-08T03:28:38;0.00;99.90
8313;DHT22;4194;43.408;24.626;2023-01-08T03:33:32;0.20;99.90
8313;DHT22;4194;43.408;24.626;2023-01-08T03:36:00;0.60;99.90
8313;DHT22;4194;43.408;24.626;2023-01-08T03:41:06;0.80;99.90
8313;DHT22;4194;43.408;24.626;2023-01-08T03:43:34;1.70;99.90
8313;DHT22;4194;43.408;24.626;2023-01-08T03:46:02;1.70;99.90
8313;DHT22;4194;43.408;24.626;2023-01-08T03:48:29;0.60;99.90
8313;DHT22;4194;43.408;24.626;2023-01-08T03:50:56;-0.10;99.90
8313;DHT22;4194;43.408;24.626;2023-01-08T03:53:22;-1.10;99.90
8313;DHT22;4194;43.408;24.626;2023-01-08T03:55:48;0.50;99.90
8313;DHT22;4194;43.408;24.626;2023-01-08T03:58:13;0.10;99.90
8313;DHT22;4194;43.408;24.626;2023-01-08T04:00:39;1.80;99.90
8313;DHT22;4194;43.408;24.626;2023-01-08T04:03:05;2.00;99.90
8313;DHT22;4194;43.408;24.626;2023-01-08T04:05:30;0.90;99.90
8313;DHT22;4194;43.408;24.626;2023-01-08T04:07:56;0.10;99.90
8313;DHT22;4194;43.408;24.626;2023-01-08T04:10:23;0.40;99.90
8313;DHT22;4194;43.408;24.626;2023-01-08T04:12:49;-0.10;99.90
8313;DHT22;4194;43.408;24.626;2023-01-08T04:15:15;-0.50;99.90
8313;DHT22;4194;43.408;24.626;2023-01-08T04:20:07;0.30;99.90
8313;DHT22;4194;43.408;24.626;2023-01-08T04:22:33;1.90;99.90
8313;DHT22;4194;43.408;24.626;2023-01-08T04:24:59;-1.00;99.90
8313;DHT22;4194;43.408;24.626;2023-01-08T04:27:25;0.20;99.90
8313;DHT22;4194;43.408;24.626;2023-01-08T04:29:51;0.90;99.90
8313;DHT22;4194;43.408;24.626;2023-01-08T04:32:17;-0.50;99.90
8313;DHT22;4194;43.408;24.626;2023-01-08T04:34:43;0.50;99.90
8313;DHT22;4194;43.408;24.626;2023-01-08T04:37:08;-0.10;99.90
8313;DHT22;4194;43.408;24.626;2023-01-08T04:39:34;1.50;99.90
8313;DHT22;4194;43.408;24.626;2023-01-08T04:42:00;0.10;99.90
8313;DHT22;4194;43.408;24.626;2023-01-08T04:44:25;-0.30;99.90
8313;DHT22;4194;43.408;24.626;2023-01-08T04:46:51;1.40;99.90
8313;DHT22;4194;43.408;24.626;2023-01-08T04:49:17;1.30;99.90
8313;DHT22;4194;43.408;24.626;2023-01-08T04:51:42;0.80;99.90
8313;DHT22;4194;43.408;24.626;2023-01-08T04:56:34;1.70;99.90
8313;DHT22;4194;43.408;24.626;2023-01-08T04:59:00;-0.20;99.90
8313;DHT22;4194;43.408;24.626;2023-01-08T05:01:26;0.50;99.90
8313;DHT22;4194;43.408;24.626;2023-01-08T05:03:58;0.60;99.90
8313;DHT22;4194;43.408;24.626;2023-01-08T05:08:50;0.00;99.90
8313;DHT22;4194;43.408;24.626;2023-01-08T05:11:16;1.50;99.90
8313;DHT22;4194;43.408;24.626;2023-01-08T05:16:08;0.10;99.90
8313;DHT22;4194;43.408;24.626;2023-01-08T05:21:00;-1.20;99.90
8313;DHT22;4194;43.408;24.626;2023-01-08T05:23:27;-0.10;99.90
8313;DHT22;4194;43.408;24.626;2023-01-08T05:25:59;0.60;99.90
8313;DHT22;4194;43.408;24.626;2023-01-08T05:28:26;1.70;99.90
8313;DHT22;4194;43.408;24.626;2023-01-08T05:30:52;1.80;99.90
8313;DHT22;4194;43.408;24.626;2023-01-08T05:35:44;1.70;99.90
8313;DHT22;4194;43.408;24.626;2023-01-08T05:38:09;0.10;99.90
8313;DHT22;4194;43.408;24.626;2023-01-08T05:45:30;0.30;99.90
8313;DHT22;4194;43.408;24.626;2023-01-08T05:47:56;0.30;99.90
8313;DHT22;4194;43.408;24.626;2023-01-08T05:52:48;-0.40;99.90
8313;DHT22;4194;43.408;24.626;2023-01-08T05:55:13;1.30;99.90
8313;DHT22;4194;43.408;24.626;2023-01-08T05:57:39;0.00;99.90
8313;DHT22;4194;43.408;24.626;2023-01-08T06:00:06;0.20;99.90
8313;DHT22;4194;43.408;24.626;2023-01-08T06:02:32;0.90;99.90
8313;DHT22;4194;43.408;24.626;2023-01-08T06:04:58;1.20;99.90
8313;DHT22;4194;43.408;24.626;2023-01-08T06:07:24;-0.20;99.90
8313;DHT22;4194;43.408;24.626;2023-01-08T06:09:50;-0.50;99.90
8313;DHT22;4194;43.408;24.626;2023-01-08T06:14:42;-0.60;99.90
8313;DHT22;4194;43.408;24.626;2023-01-08T06:17:07;-0.40;99.90
8313;DHT22;4194;43.408;24.626;2023-01-08T06:19:33;1.50;99.90
8313;DHT22;4194;43.408;24.626;2023-01-08T06:21:59;0.30;99.90
8313;DHT22;4194;43.408;24.626;2023-01-08T06:29:16;-0.20;99.90
8313;DHT22;4194;43.408;24.626;2023-01-08T06:31:42;0.90;99.90
8313;DHT22;4194;43.408;24.626;2023-01-08T06:34:08;0.50;99.90
8313;DHT22;4194;43.408;24.626;2023-01-08T06:38:59;0.20;99.90
8313;DHT22;4194;43.408;24.626;2023-01-08T06:41:25;0.40;99.90
8313;DHT22;4194;43.408;24.626;2023-01-08T06:43:51;1.10;99.90
8313;DHT22;4194;43.408;24.626;2023-01-08T06:46:18;0.00;99.90
8313;DHT22;4194;43.408;24.626;2023-01-08T06:48:44;1.70;99.90
8313;DHT22;4194;43.408;24.626;2023-01-08T06:51:10;0.70;99.90
8313;DHT22;4194;43.408;24.626;2023-01-08T06:53:35;1.90;99.90
8313;DHT22;4194;43.408;24.626;2023-01-08T06:56:02;0.30;99.90
8313;DHT22;4194;43.408;24.626;2023-01-08T06:58:28;0.30;99.90
8313;DHT22;4194;43.408;24.626;2023-01-08T07:00:54;1.50;99.90
8313;DHT22;4194;43.408;24.626;2023-01-08T07:03:20;1.50;99.90
8313;DHT22;4194;43.408;24.626;2023-01-08T07:05:46;0.80;99.90
8313;DHT22;4194;43.408;24.626;2023-01-08T07:13:08;1.20;99.90
8313;DHT22;4194;43.408;24.626;2023-01-08T07:15:39;2.10;99.90
8313;DHT22;4194;43.408;24.626;2023-01-08T07:20:35;1.60;99.90
8313;DHT22;4194;43.408;24.626;2023-01-08T07:23:08;1.00;99.90
8313;DHT22;4194;43.408;24.626;2023-01-08T07:25:33;1.80;99.90
8313;DHT22;4194;43.408;24.626;2023-01-08T07:27:59;1.40;99.90
8313;DHT22;4194;43.408;24.626;2023-01-08T07:30:26;-0.30;99.90
8313;DHT22;4194;43.408;24.626;2023-01-08T07:32:56;1.50;99.90
8313;DHT22;4194;43.408;24.626;2023-01-08T07:35:21;1.80;99.90
8313;DHT22;4194;43.408;24.626;2023-01-08T07:37:47;2.20;99.90
8313;DHT22;4194;43.408;24.626;2023-01-08T07:40:13;1.80;99.90
8313;DHT22;4194;43.408;24.626;2023-01-08T07:42:38;1.20;99.90
8313;DHT22;4194;43.408;24.626;2023-01-08T07:45:04;1.60;99.90
8313;DHT22;4194;43.408;24.626;2023-01-08T07:47:30;1.70;99.90
8313;DHT22;4194;43.408;24.626;2023-01-08T07:49:56;1.80;99.90
8313;DHT22;4194;43.408;24.626;2023-01-08T07:52:22;2.10;99.90
8313;DHT22;4194;43.408;24.626;2023-01-08T07:57:13;3.70;99.90
8313;DHT22;4194;43.408;24.626;2023-01-08T07:59:39;3.80;99.90
8313;DHT22;4194;43.408;24.626;2023-01-08T08:02:04;3.80;99.90
8313;DHT22;4194;43.408;24.626;2023-01-08T08:06:58;1.70;99.90
8313;DHT22;4194;43.408;24.626;2023-01-08T08:09:23;3.70;99.90
8313;DHT22;4194;43.408;24.626;2023-01-08T08:11:49;3.90;99.90
8313;DHT22;4194;43.408;24.626;2023-01-08T08:14:15;3.60;99.90
8313;DHT22;4194;43.408;24.626;2023-01-08T08:16:41;3.90;99.90
8313;DHT22;4194;43.408;24.626;2023-01-08T08:19:06;4.10;99.90
8313;DHT22;4194;43.408;24.626;2023-01-08T08:21:32;2.80;99.90
8313;DHT22;4194;43.408;24.626;2023-01-08T08:23:58;2.80;99.90
8313;DHT22;4194;43.408;24.626;2023-01-08T08:31:16;3.40;99.90
8313;DHT22;4194;43.408;24.626;2023-01-08T08:36:08;3.20;99.90
8313;DHT22;4194;43.408;24.626;2023-01-08T08:38:35;3.20;99.90
8313;DHT22;4194;43.408;24.626;2023-01-08T08:41:01;3.90;99.90
8313;DHT22;4194;43.408;24.626;2023-01-08T08:43:26;3.10;99.90
8313;DHT22;4194;43.408;24.626;2023-01-08T08:45:54;4.00;99.90
8313;DHT22;4194;43.408;24.626;2023-01-08T08:48:20;3.90;99.90
8313;DHT22;4194;43.408;24.626;2023-01-08T08:50:48;2.60;99.90
8313;DHT22;4194;43.408;24.626;2023-01-08T08:53:13;3.60;99.90
8313;DHT22;4194;43.408;24.626;2023-01-08T08:55:39;3.70;99.90
8313;DHT22;4194;43.408;24.626;2023-01-08T08:58:07;3.30;99.90
8313;DHT22;4194;43.408;24.626;2023-01-08T09:00:35;4.40;99.90
8313;DHT22;4194;43.408;24.626;2023-01-08T09:03:01;2.80;99.90
8313;DHT22;4194;43.408;24.626;2023-01-08T09:05:27;3.70;99.90
8313;DHT22;4194;43.408;24.626;2023-01-08T09:07:53;2.80;99.90
8313;DHT22;4194;43.408;24.626;2023-01-08T09:10:20;4.40;99.90
8313;DHT22;4194;43.408;24.626;2023-01-08T09:12:45;3.40;99.90
8313;DHT22;4194;43.408;24.626;2023-01-08T09:15:11;2.30;99.90
8313;DHT22;4194;43.408;24.626;2023-01-08T09:17:37;3.50;99.90
8313;DHT22;4194;43.408;24.626;2023-01-08T09:20:04;4.00;99.90
8313;DHT22;4194;43.408;24.626;2023-01-08T09:22:30;3.60;99.90
8313;DHT22;4194;43.408;24.626;2023-01-08T09:24:55;4.80;99.90
8313;DHT22;4194;43.408;24.626;2023-01-08T09:27:21;3.60;99.90
8313;DHT22;4194;43.408;24.626;2023-01-08T09:29:47;4.90;99.90
8313;DHT22;4194;43.408;24.626;2023-01-08T09:32:12;3.10;99.90
8313;DHT22;4194;43.408;24.626;2023-01-08T09:34:38;5.60;99.90
8313;DHT22;4194;43.408;24.626;2023-01-08T09:37:04;6.00;99.90
8313;DHT22;4194;43.408;24.626;2023-01-08T09:39:30;3.60;99.90
8313;DHT22;4194;43.408;24.626;2023-01-08T09:41:59;4.60;99.90
8313;DHT22;4194;43.408;24.626;2023-01-08T09:44:30;6.30;99.90
8313;DHT22;4194;43.408;24.626;2023-01-08T09:46:59;4.40;99.90
8313;DHT22;4194;43.408;24.626;2023-01-08T09:49:35;4.80;99.90
8313;DHT22;4194;43.408;24.626;2023-01-08T09:54:30;5.20;99.90
8313;DHT22;4194;43.408;24.626;2023-01-08T09:56:58;6.10;99.90
8313;DHT22;4194;43.408;24.626;2023-01-08T09:59:23;5.90;99.90
8313;DHT22;4194;43.408;24.626;2023-01-08T10:01:51;6.00;99.90
8313;DHT22;4194;43.408;24.626;2023-01-08T10:06:49;5.90;99.90
8313;DHT22;4194;43.408;24.626;2023-01-08T10:09:16;5.50;99.90
8313;DHT22;4194;43.408;24.626;2023-01-08T10:11:46;5.80;99.90
8313;DHT22;4194;43.408;24.626;2023-01-08T10:14:29;5.90;99.90
8313;DHT22;4194;43.408;24.626;2023-01-08T10:17:25;6.30;99.90
8313;DHT22;4194;43.408;24.626;2023-01-08T10:19:51;6.30;99.90
8313;DHT22;4194;43.408;24.626;2023-01-08T10:22:23;6.00;99.90
8313;DHT22;4194;43.408;24.626;2023-01-08T10:24:50;5.60;99.90
8313;DHT22;4194;43.408;24.626;2023-01-08T10:27:19;6.40;99.90
8313;DHT22;4194;43.408;24.626;2023-01-08T10:29:45;5.60;99.90
8313;DHT22;4194;43.408;24.626;2023-01-08T10:32:14;7.30;99.90
8313;DHT22;4194;43.408;24.626;2023-01-08T10:34:51;6.70;99.90
8313;DHT22;4194;43.408;24.626;2023-01-08T10:37:40;9.00;99.90
8313;DHT22;4194;43.408;24.626;2023-01-08T10:40:21;7.80;99.90
8313;DHT22;4194;43.408;24.626;2023-01-08T10:42:51;7.40;99.90
8313;DHT22;4194;43.408;24.626;2023-01-08T10:45:22;7.00;99.90
8313;DHT22;4194;43.408;24.626;2023-01-08T10:47:51;7.00;99.90
8313;DHT22;4194;43.408;24.626;2023-01-08T10:50:32;8.50;99.90
8313;DHT22;4194;43.408;24.626;2023-01-08T10:53:02;8.50;99.90
8313;DHT22;4194;43.408;24.626;2023-01-08T10:55:32;8.10;99.90
8313;DHT22;4194;43.408;24.626;2023-01-08T10:58:23;8.80;99.90
8313;DHT22;4194;43.408;24.626;2023-01-08T11:00:48;7.60;99.90
8313;DHT22;4194;43.408;24.626;2023-01-08T11:03:30;8.20;99.90
8313;DHT22;4194;43.408;24.626;2023-01-08T11:05:57;8.50;99.90
8313;DHT22;4194;43.408;24.626;2023-01-08T11:08:23;9.20;99.90
8313;DHT22;4194;43.408;24.626;2023-01-08T11:11:00;8.90;99.90
8313;DHT22;4194;43.408;24.626;2023-01-08T11:13:26;9.50;99.90
8313;DHT22;4194;43.408;24.626;2023-01-08T11:16:08;8.00;99.40
8313;DHT22;4194;43.408;24.626;2023-01-08T11:21:25;9.50;99.30
8313;DHT22;4194;43.408;24.626;2023-01-08T11:24:22;8.90;98.60
8313;DHT22;4194;43.408;24.626;2023-01-08T11:35:35;8.50;98.10
8313;DHT22;4194;43.408;24.626;2023-01-08T11:37:59;9.10;97.90
8313;DHT22;4194;43.408;24.626;2023-01-08T11:43:46;9.40;97.80
8313;DHT22;4194;43.408;24.626;2023-01-08T11:49:57;9.80;96.40
8313;DHT22;4194;43.408;24.626;2023-01-08T12:00:48;8.90;97.10
8313;DHT22;4194;43.408;24.626;2023-01-08T12:03:35;8.70;97.30
8313;DHT22;4194;43.408;24.626;2023-01-08T12:06:46;9.20;97.00
8313;DHT22;4194;43.408;24.626;2023-01-08T12:09:49;8.40;95.80
8313;DHT22;4194;43.408;24.626;2023-01-08T12:20:31;9.60;94.60
8313;DHT22;4194;43.408;24.626;2023-01-08T12:34:11;13.50;89.50
8313;DHT22;4194;43.408;24.626;2023-01-08T12:36:46;12.40;88.00
8313;DHT22;4194;43.408;24.626;2023-01-08T12:39:29;16.70;71.40
8313;DHT22;4194;43.408;24.626;2023-01-08T12:42:09;16.80;71.40
8313;DHT22;4194;43.408;24.626;2023-01-08T12:45:02;17.30;62.00
8313;DHT22;4194;43.408;24.626;2023-01-08T12:52:45;11.30;76.00
8313;DHT22;4194;43.408;24.626;2023-01-08T12:55:16;11.60;81.30
8313;DHT22;4194;43.408;24.626;2023-01-08T12:57:57;8.80;84.70
8313;DHT22;4194;43.408;24.626;2023-01-08T13:00:53;9.10;90.50
8313;DHT22;4194;43.408;24.626;2023-01-08T13:03:24;9.00;93.30
8313;DHT22;4194;43.408;24.626;2023-01-08T13:05:52;7.90;95.00
8313;DHT22;4194;43.408;24.626;2023-01-08T13:08:36;7.70;99.80
8313;DHT22;4194;43.408;24.626;2023-01-08T13:11:03;7.60;99.90
8313;DHT22;4194;43.408;24.626;2023-01-08T13:16:24;7.10;99.90
8313;DHT22;4194;43.408;24.626;2023-01-08T13:18:58;8.40;99.90
8313;DHT22;4194;43.408;24.626;2023-01-08T13:21:36;6.80;99.90
8313;DHT22;4194;43.408;24.626;2023-01-08T13:24:24;7.00;99.90
8313;DHT22;4194;43.408;24.626;2023-01-08T13:29:46;6.40;99.90
8313;DHT22;4194;43.408;24.626;2023-01-08T13:32:46;8.40;99.90
8313;DHT22;4194;43.408;24.626;2023-01-08T13:37:42;6.60;99.90
8313;DHT22;4194;43.408;24.626;2023-01-08T13:43:38;7.00;99.90
8313;DHT22;4194;43.408;24.626;2023-01-08T13:46:13;6.30;99.90
8313;DHT22;4194;43.408;24.626;2023-01-08T13:53:58;5.50;99.90
8313;DHT22;4194;43.408;24.626;2023-01-08T13:56:29;7.10;99.90
8313;DHT22;4194;43.408;24.626;2023-01-08T13:58:54;6.40;99.90
8313;DHT22;4194;43.408;24.626;2023-01-08T14:01:21;5.60;99.90
8313;DHT22;4194;43.408;24.626;2023-01-08T14:03:47;6.40;99.90
8313;DHT22;4194;43.408;24.626;2023-01-08T14:06:24;6.00;99.90
8313;DHT22;4194;43.408;24.626;2023-01-08T14:08:51;6.60;99.90
8313;DHT22;4194;43.408;24.626;2023-01-08T14:11:17;6.20;99.90
8313;DHT22;4194;43.408;24.626;2023-01-08T14:13:45;6.40;99.90
8313;DHT22;4194;43.408;24.626;2023-01-08T14:16:13;6.10;99.90
8313;DHT22;4194;43.408;24.626;2023-01-08T14:18:40;7.00;99.90
8313;DHT22;4194;43.408;24.626;2023-01-08T14:21:07;5.80;99.90
8313;DHT22;4194;43.408;24.626;2023-01-08T14:23:39;5.50;99.90
8313;DHT22;4194;43.408;24.626;2023-01-08T14:26:06;5.40;99.90
8313;DHT22;4194;43.408;24.626;2023-01-08T14:28:33;4.60;99.90
8313;DHT22;4194;43.408;24.626;2023-01-08T14:30:59;4.90;99.90
8313;DHT22;4194;43.408;24.626;2023-01-08T14:33:33;5.20;99.90
8313;DHT22;4194;43.408;24.626;2023-01-08T14:36:00;6.30;99.90
8313;DHT22;4194;43.408;24.626;2023-01-08T14:38:27;6.00;99.90
8313;DHT22;4194;43.408;24.626;2023-01-08T14:41:05;4.40;99.90
8313;DHT22;4194;43.408;24.626;2023-01-08T14:43:37;5.00;99.90
8313;DHT22;4194;43.408;24.626;2023-01-08T14:46:03;5.40;99.90
8313;DHT22;4194;43.408;24.626;2023-01-08T14:48:41;5.80;99.90
8313;DHT22;4194;43.408;24.626;2023-01-08T14:51:10;4.10;99.90
8313;DHT22;4194;43.408;24.626;2023-01-08T14:53:46;5.80;99.90
8313;DHT22;4194;43.408;24.626;2023-01-08T14:56:19;4.40;99.90
8313;DHT22;4194;43.408;24.626;2023-01-08T14:58:46;4.00;99.90
8313;DHT22;4194;43.408;24.626;2023-01-08T15:01:22;4.40;99.90
8313;DHT22;4194;43.408;24.626;2023-01-08T15:03:51;3.80;99.90
8313;DHT22;4194;43.408;24.626;2023-01-08T15:06:28;4.20;99.90
8313;DHT22;4194;43.408;24.626;2023-01-08T15:08:54;5.30;99.90
8313;DHT22;4194;43.408;24.626;2023-01-08T15:11:32;3.80;99.90
8313;DHT22;4194;43.408;24.626;2023-01-08T15:14:12;2.70;99.90
8313;DHT22;4194;43.408;24.626;2023-01-08T15:16:40;4.90;99.90
8313;DHT22;4194;43.408;24.626;2023-01-08T15:19:12;3.70;99.90
8313;DHT22;4194;43.408;24.626;2023-01-08T15:21:45;4.00;99.90
8313;DHT22;4194;43.408;24.626;2023-01-08T15:24:38;3.60;99.90
8313;DHT22;4194;43.408;24.626;2023-01-08T15:27:04;3.70;99.90
8313;DHT22;4194;43.408;24.626;2023-01-08T15:34:44;3.50;99.90
8313;DHT22;4194;43.408;24.626;2023-01-08T15:37:11;3.50;99.90
8313;DHT22;4194;43.408;24.626;2023-01-08T15:39:37;3.70;99.90
8313;DHT22;4194;43.408;24.626;2023-01-08T15:42:21;3.10;99.90
8313;DHT22;4194;43.408;24.626;2023-01-08T15:45:14;3.00;99.90
8313;DHT22;4194;43.408;24.626;2023-01-08T15:47:40;4.20;99.90
8313;DHT22;4194;43.408;24.626;2023-01-08T15:50:06;3.00;99.90
8313;DHT22;4194;43.408;24.626;2023-01-08T15:54:59;3.50;99.90
8313;DHT22;4194;43.408;24.626;2023-01-08T15:57:26;3.50;99.90
8313;DHT22;4194;43.408;24.626;2023-01-08T15:59:54;2.40;99.90
8313;DHT22;4194;43.408;24.626;2023-01-08T16:02:21;3.70;99.90
8313;DHT22;4194;43.408;24.626;2023-01-08T16:07:20;3.40;99.90
8313;DHT22;4194;43.408;24.626;2023-01-08T16:09:46;2.60;99.90
8313;DHT22;4194;43.408;24.626;2023-01-08T16:12:12;3.10;99.90
8313;DHT22;4194;43.408;24.626;2023-01-08T16:14:38;3.60;99.90
8313;DHT22;4194;43.408;24.626;2023-01-08T16:17:05;2.40;99.90
8313;DHT22;4194;43.408;24.626;2023-01-08T16:19:31;1.70;99.90
8313;DHT22;4194;43.408;24.626;2023-01-08T16:21:57;3.80;99.90
8313;DHT22;4194;43.408;24.626;2023-01-08T16:24:23;2.90;99.90
8313;DHT22;4194;43.408;24.626;2023-01-08T16:26:49;3.70;99.90
8313;DHT22;4194;43.408;24.626;2023-01-08T16:29:15;3.70;99.90
8313;DHT22;4194;43.408;24.626;2023-01-08T16:31:45;2.20;99.90
8313;DHT22;4194;43.408;24.626;2023-01-08T16:34:12;3.40;99.90
8313;DHT22;4194;43.408;24.626;2023-01-08T16:36:38;3.40;99.90
8313;DHT22;4194;43.408;24.626;2023-01-08T16:41:30;3.70;99.90
8313;DHT22;4194;43.408;24.626;2023-01-08T16:46:22;1.90;99.90
8313;DHT22;4194;43.408;24.626;2023-01-08T16:48:48;2.10;99.90
8313;DHT22;4194;43.408;24.626;2023-01-08T16:51:15;2.90;99.90
8313;DHT22;4194;43.408;24.626;2023-01-08T16:56:07;3.30;99.90
8313;DHT22;4194;43.408;24.626;2023-01-08T16:58:34;2.10;99.90
8313;DHT22;4194;43.408;24.626;2023-01-08T17:08:26;1.70;99.90
8313;DHT22;4194;43.408;24.626;2023-01-08T17:10:52;3.50;99.90
8313;DHT22;4194;43.408;24.626;2023-01-08T17:13:18;1.80;99.90
8313;DHT22;4194;43.408;24.626;2023-01-08T17:20:36;3.10;99.90
8313;DHT22;4194;43.408;24.626;2023-01-08T17:23:02;2.30;99.90
8313;DHT22;4194;43.408;24.626;2023-01-08T17:25:28;2.20;99.90
8313;DHT22;4194;43.408;24.626;2023-01-08T17:27:53;1.60;99.90
8313;DHT22;4194;43.408;24.626;2023-01-08T17:30:19;3.50;99.90
8313;DHT22;4194;43.408;24.626;2023-01-08T17:35:11;3.40;99.90
8313;DHT22;4194;43.408;24.626;2023-01-08T17:37:37;3.70;99.90
8313;DHT22;4194;43.408;24.626;2023-01-08T17:40:03;2.50;99.90
8313;DHT22;4194;43.408;24.626;2023-01-08T17:42:29;2.00;99.90
8313;DHT22;4194;43.408;24.626;2023-01-08T17:44:56;1.90;99.90
8313;DHT22;4194;43.408;24.626;2023-01-08T17:47:24;3.20;99.90
8313;DHT22;4194;43.408;24.626;2023-01-08T17:49:50;3.70;99.90
8313;DHT22;4194;43.408;24.626;2023-01-08T17:57:09;1.20;99.90
8313;DHT22;4194;43.408;24.626;2023-01-08T18:02:01;1.80;99.90
8313;DHT22;4194;43.408;24.626;2023-01-08T18:04:27;0.70;99.90
8313;DHT22;4194;43.408;24.626;2023-01-08T18:06:53;2.30;99.90
8313;DHT22;4194;43.408;24.626;2023-01-08T18:09:19;1.20;99.90
8313;DHT22;4194;43.408;24.626;2023-01-08T18:14:11;3.70;99.90
8313;DHT22;4194;43.408;24.626;2023-01-08T18:16:37;3.30;99.90
8313;DHT22;4194;43.408;24.626;2023-01-08T18:19:04;2.20;99.90
8313;DHT22;4194;43.408;24.626;2023-01-08T18:21:29;2.30;99.90
8313;DHT22;4194;43.408;24.626;2023-01-08T18:23:55;1.00;99.90
8313;DHT22;4194;43.408;24.626;2023-01-08T18:26:22;0.60;99.90
8313;DHT22;4194;43.408;24.626;2023-01-08T18:33:40;1.40;99.90
8313;DHT22;4194;43.408;24.626;2023-01-08T18:36:09;1.10;99.90
8313;DHT22;4194;43.408;24.626;2023-01-08T18:38:37;1.80;99.90
8313;DHT22;4194;43.408;24.626;2023-01-08T18:45:58;1.50;99.90
8313;DHT22;4194;43.408;24.626;2023-01-08T18:48:26;1.20;99.90
8313;DHT22;4194;43.408;24.626;2023-01-08T18:50:52;1.90;99.90
8313;DHT22;4194;43.408;24.626;2023-01-08T18:53:17;0.40;99.90
8313;DHT22;4194;43.408;24.626;2023-01-08T18:55:44;1.70;99.90
8313;DHT22;4194;43.408;24.626;2023-01-08T18:58:10;1.40;99.90
8313;DHT22;4194;43.408;24.626;2023-01-08T19:00:36;2.50;99.90
8313;DHT22;4194;43.408;24.626;2023-01-08T19:03:02;1.70;99.90
8313;DHT22;4194;43.408;24.626;2023-01-08T19:05:31;0.90;99.90
8313;DHT22;4194;43.408;24.626;2023-01-08T19:07:57;1.10;99.90
8313;DHT22;4194;43.408;24.626;2023-01-08T19:10:23;1.50;99.90
8313;DHT22;4194;43.408;24.626;2023-01-08T19:12:48;0.40;99.90
8313;DHT22;4194;43.408;24.626;2023-01-08T19:20:08;1.10;99.90
8313;DHT22;4194;43.408;24.626;2023-01-08T19:25:00;2.60;99.90
8313;DHT22;4194;43.408;24.626;2023-01-08T19:27:26;2.20;99.90
8313;DHT22;4194;43.408;24.626;2023-01-08T19:29:52;1.90;99.90
8313;DHT22;4194;43.408;24.626;2023-01-08T19:32:18;1.80;99.90
8313;DHT22;4194;43.408;24.626;2023-01-08T19:37:11;1.80;99.90
8313;DHT22;4194;43.408;24.626;2023-01-08T19:39:39;1.80;99.90
8313;DHT22;4194;43.408;24.626;2023-01-08T19:42:04;2.10;99.90
8313;DHT22;4194;43.408;24.626;2023-01-08T19:44:49;2.20;99.90
8313;DHT22;4194;43.408;24.626;2023-01-08T19:47:15;2.20;99.90
8313;DHT22;4194;43.408;24.626;2023-01-08T19:49:42;2.60;99.90
8313;DHT22;4194;43.408;24.626;2023-01-08T19:54:39;1.80;99.90
8313;DHT22;4194;43.408;24.626;2023-01-08T19:57:05;1.30;99.90
8313;DHT22;4194;43.408;24.626;2023-01-08T19:59:30;1.00;99.90